IS62 weather

John D Rennick Airport
Spring Bay, Illinois, United States

Public forecast

Using degrees Fahrenheit for public forecast. Weather courtesy of forecast.io.

METAR (pilot weather report)

Closest report is Marshall County Airport, 9.6 nm (17.8 km) NNE. Retrieved 2019/06/20 01:35 UTC (0 seconds ago):

KC75 200135Z AUTO 05009G15KT 7SM DZ BKN010 OVC015 17/16 A2962 RMK AO2 T01700160

TAF (pilot weather forecast)

Closest forecast is General Wayne A. Downing Peoria International Airport, 16.4 nm (30.3 km) SW. Retrieved 2019/06/20 01:00 UTC (12 minutes ago):

TAF KPIA 200058Z 2001/2024 07008KT 4SM -RA BR OVC020 TEMPO 2001/2005 1 1/2SM TSRA BR OVC015CB FM200500 03010KT 5SM SHRA BR OVC020 FM200700 03013KT P6SM VCSH OVC020 FM201100 34009KT P6SM BKN010 FM201700 33007KT P6SM SCT030